首页
METAR-TAF:

METAR-TAF

机场 :

索菲亞機場

索菲亞, 保加利亚

纬度: 42-39N, 经度: 023-23E, 海拔: 586米

当前天气观测

该预报发布于17分钟前的21:30 UTC
风速3节,风向
温度 9°C
湿度 93%
气压 1022 hPa
能見度: 5000
散云层高于2700英尺
轻雾

METAR: LBSF 212130Z 10003KT 5000 BR SCT027 09/08 Q1022 TEMPO 4000 BR

时间: 00:47 (21:47 UTC)

预报

该预报发布于4小时和47分钟前的17:00 UTC
预报有效从21日的 18点(UTC)到 22日的 18点(UTC)
风速6节,风向
能見度: 8000
散云层高于2000英尺
多云层高于3500英尺
短暂存在
从 21日的 18点(UTC)到 21日的 22点(UTC)
能見度: 5000
雨, 轻雾
几率 30%
从 21日的 18点(UTC)到 21日的 20点(UTC)
多云层高于2500英尺
少量云层高于2800英尺, 积雨云.
阵雨
短暂存在
从 22日的 02点(UTC)到 22日的 06点(UTC)
能見度: 3000
轻雾
成为
从 22日的 06点(UTC)到 22日的 08点(UTC)
风速10节,风向
能见度10公里或以上
散云层高于5000英尺
多云层高于8000英尺

TAF: LBSF 211700Z 2118/2218 10006KT 8000 SCT020 BKN035 TEMPO 2118/2122 5000 RA BR PROB30 2118/2120 SHRA BKN025 FEW028CB TEMPO 2202/2206 3000 BR BECMG 2206/2208 08010KT 9999 SCT050 BKN080

超过4000个机场的气象观测和天气预报(METAR&TAF报告)。

可查询的气象台以黄色和红色小点在地图上表示。

将鼠标移到小点上方,可查看气象台名称。

然后点击查看天气观测和预报。

如需切换地图:点击带黑十字的绿色按钮放大地图;点击带横线的绿色按钮缩小地图;或者点击绿色箭头查看邻近地区的地图。


METAR-TAF: